Time;durP1;ratioP1;P1;durP2;ratioP2;P2;SDS_P1;SDS_P2;PMS_P1;PMS_P2;Temp;Humidity;BMP_temperature;BMP_pressure;BME280_temperature;BME280_humidity;BME280_pressure;Samples;Min_cycle;Max_cycle;Signal;HPM_P1;HPM_P2
2022/08/05 00:01:00;;;;;;;5.75;1.77;;;19.00;99.90;;;;;;5016332;28;20394;-69
2022/08/05 00:03:25;;;;;;;6.90;1.85;;;19.00;99.90;;;;;;5016464;28;20054;-69
2022/08/05 00:05:51;;;;;;;3.60;1.65;;;18.80;99.90;;;;;;5016948;28;20050;-69
2022/08/05 00:08:18;;;;;;;5.90;1.60;;;18.90;99.90;;;;;;5016959;28;20045;-69
2022/08/05 00:10:43;;;;;;;4.95;1.73;;;18.90;99.90;;;;;;5016713;28;20428;-70
2022/08/05 00:13:09;;;;;;;6.50;2.00;;;18.80;99.90;;;;;;5016738;28;20137;-69
2022/08/05 00:15:34;;;;;;;4.30;2.20;;;18.90;99.90;;;;;;5016592;28;20085;-68
2022/08/05 00:18:00;;;;;;;3.60;1.80;;;18.90;99.90;;;;;;5016545;28;20034;-70
2022/08/05 00:20:25;;;;;;;3.78;1.88;;;18.80;99.90;;;;;;5016697;28;20092;-68
2022/08/05 00:22:51;;;;;;;5.32;1.73;;;18.80;99.90;;;;;;5016794;28;20430;-68
2022/08/05 00:25:17;;;;;;;5.93;2.25;;;18.80;99.90;;;;;;5016652;28;20045;-69
2022/08/05 00:27:42;;;;;;;3.30;1.58;;;18.80;99.90;;;;;;5015674;28;20054;-70
2022/08/05 00:30:08;;;;;;;5.50;2.05;;;18.70;99.90;;;;;;5016573;28;20049;-69
2022/08/05 00:32:34;;;;;;;6.03;2.22;;;18.70;99.90;;;;;;5016301;28;20485;-68
2022/08/05 00:34:59;;;;;;;2.65;1.45;;;18.70;99.90;;;;;;5016582;28;20140;-69
2022/08/05 00:37:25;;;;;;;7.25;2.00;;;18.70;99.90;;;;;;5016435;28;20046;-69
2022/08/05 00:39:51;;;;;;;5.10;1.85;;;18.60;99.90;;;;;;5016222;28;20454;-69
2022/08/05 00:42:29;;;;;;;3.97;1.52;;;18.60;99.90;;;;;;5016565;28;20105;-69
2022/08/05 00:44:55;;;;;;;3.78;1.80;;;18.60;99.90;;;;;;5016064;28;20132;-69
2022/08/05 00:47:20;;;;;;;6.22;1.65;;;18.60;99.90;;;;;;5015590;28;20117;-69
2022/08/05 00:49:46;;;;;;;7.45;2.05;;;18.60;99.90;;;;;;5016102;28;20050;-69
2022/08/05 00:52:11;;;;;;;8.20;1.60;;;18.60;99.90;;;;;;5016058;28;20046;-69
2022/08/05 00:54:37;;;;;;;3.28;1.70;;;18.60;99.90;;;;;;5016224;28;20060;-69
2022/08/05 00:57:03;;;;;;;6.22;2.22;;;18.60;99.90;;;;;;5015555;28;20455;-69
2022/08/05 00:59:29;;;;;;;8.50;2.05;;;18.60;99.90;;;;;;5016071;28;20085;-69
2022/08/05 01:01:54;;;;;;;11.02;2.10;;;18.60;99.90;;;;;;5015703;28;20085;-69
2022/08/05 01:04:20;;;;;;;6.95;2.35;;;18.60;99.90;;;;;;4994869;28;20104;-69
2022/08/05 01:06:47;;;;;;;5.38;1.63;;;18.60;99.90;;;;;;4996383;28;20125;-68
2022/08/05 01:09:13;;;;;;;3.75;1.90;;;18.60;99.90;;;;;;4996041;28;20434;-69
2022/08/05 01:11:39;;;;;;;5.35;1.70;;;18.60;99.90;;;;;;4995803;28;20046;-69
2022/08/05 01:14:13;;;;;;;9.70;2.17;;;18.60;99.90;;;;;;4996074;28;20042;-69
2022/08/05 01:16:58;;;;;;;4.97;1.88;;;18.60;99.90;;;;;;4996184;28;20363;-69
2022/08/05 01:19:54;;;;;;;4.57;1.63;;;18.60;99.90;;;;;;5012558;28;20111;-70
2022/08/05 01:22:37;;;;;;;8.63;2.47;;;18.60;99.90;;;;;;5015458;28;20141;-69
2022/08/05 01:25:31;;;;;;;4.90;2.35;;;18.60;99.90;;;;;;5015817;28;20085;-70
2022/08/05 01:28:17;;;;;;;4.95;1.80;;;18.60;99.90;;;;;;5015395;28;20125;-70
2022/08/05 01:31:00;;;;;;;7.40;1.95;;;18.70;99.90;;;;;;5015379;28;20060;-69
2022/08/05 01:33:33;;;;;;;5.28;1.73;;;18.70;99.90;;;;;;5015303;28;20042;-69
2022/08/05 01:36:02;;;;;;;8.73;2.40;;;18.70;99.90;;;;;;5015370;28;20443;-69
2022/08/05 01:38:28;;;;;;;4.68;1.80;;;18.60;99.90;;;;;;5015208;28;20057;-68
2022/08/05 01:40:57;;;;;;;3.15;1.65;;;18.70;99.90;;;;;;5015270;28;20386;-69
2022/08/05 01:43:24;;;;;;;4.38;1.80;;;18.60;99.90;;;;;;5015186;28;20046;-69
2022/08/05 01:45:51;;;;;;;5.72;1.60;;;18.60;99.90;;;;;;5014933;28;20042;-69
2022/08/05 01:48:17;;;;;;;4.97;2.35;;;18.60;99.90;;;;;;5015033;28;20077;-69
2022/08/05 01:50:45;;;;;;;4.32;1.80;;;18.60;99.90;;;;;;5015271;28;20038;-69
2022/08/05 01:53:15;;;;;;;3.28;1.38;;;18.60;99.90;;;;;;5015467;28;20100;-69
2022/08/05 01:55:43;;;;;;;4.03;1.98;;;18.60;99.90;;;;;;5015399;28;20042;-69
2022/08/05 01:58:11;;;;;;;4.10;1.60;;;18.60;99.90;;;;;;5015205;28;20184;-68
2022/08/05 02:00:40;;;;;;;3.97;1.85;;;18.60;99.90;;;;;;5015018;28;20046;-70
2022/08/05 02:03:19;;;;;;;6.13;1.70;;;18.60;99.90;;;;;;5015176;28;20076;-68
2022/08/05 02:05:46;;;;;;;7.22;1.90;;;18.50;99.90;;;;;;5014926;28;20050;-69
2022/08/05 02:08:12;;;;;;;5.82;2.05;;;18.50;99.90;;;;;;5014935;28;20082;-69
2022/08/05 02:10:51;;;;;;;5.55;2.22;;;18.50;99.90;;;;;;5014797;28;20095;-69
2022/08/05 02:13:26;;;;;;;6.85;2.00;;;18.50;99.90;;;;;;4997803;28;20092;-69
2022/08/05 02:16:04;;;;;;;9.40;2.60;;;18.60;99.90;;;;;;5014103;28;20038;-70
2022/08/05 02:18:39;;;;;;;3.63;1.70;;;18.50;99.90;;;;;;5014489;28;20136;-69
2022/08/05 02:21:10;;;;;;;4.75;1.92;;;18.40;99.90;;;;;;5014822;28;20045;-69
2022/08/05 02:23:39;;;;;;;9.00;2.88;;;18.40;99.90;;;;;;5015094;28;20395;-68
2022/08/05 02:26:08;;;;;;;4.80;1.73;;;18.30;99.90;;;;;;5015017;28;20050;-69
2022/08/05 02:28:38;;;;;;;7.40;1.85;;;18.40;99.90;;;;;;5015143;28;20052;-69
2022/08/05 02:31:15;;;;;;;2.67;1.33;;;18.30;99.90;;;;;;5014466;28;20048;-69
2022/08/05 02:33:50;;;;;;;6.90;1.73;;;18.20;99.90;;;;;;5014573;28;20466;-69
2022/08/05 02:36:19;;;;;;;7.72;2.30;;;18.30;99.90;;;;;;5014837;28;20431;-69
2022/08/05 02:38:47;;;;;;;3.65;1.60;;;18.30;99.90;;;;;;5014356;28;20525;-69
2022/08/05 02:41:14;;;;;;;4.75;1.85;;;18.30;99.90;;;;;;5014687;28;20042;-68
2022/08/05 02:43:41;;;;;;;6.95;1.92;;;18.20;99.90;;;;;;5014691;28;20057;-69
2022/08/05 02:46:07;;;;;;;4.63;1.77;;;18.30;99.90;;;;;;5014193;28;20054;-69
2022/08/05 02:48:33;;;;;;;4.85;1.50;;;18.30;99.90;;;;;;5014818;28;20037;-69
2022/08/05 02:51:01;;;;;;;7.75;1.92;;;18.30;99.90;;;;;;5015763;28;20151;-68
2022/08/05 02:53:31;;;;;;;8.65;2.75;;;18.20;99.90;;;;;;5018202;28;20050;-69
2022/08/05 02:55:59;;;;;;;3.20;1.63;;;18.20;99.90;;;;;;5018200;28;20336;-70
2022/08/05 02:58:25;;;;;;;3.63;1.45;;;18.20;99.90;;;;;;5018070;28;20057;-69
2022/08/05 03:00:54;;;;;;;4.00;1.85;;;18.20;99.90;;;;;;5017842;28;20079;-69
2022/08/05 03:03:20;;;;;;;4.22;1.65;;;18.20;99.90;;;;;;5017928;28;20459;-70
2022/08/05 03:05:47;;;;;;;6.03;1.77;;;18.20;99.90;;;;;;5018338;28;20108;-70
2022/08/05 03:08:13;;;;;;;3.53;1.73;;;18.10;99.90;;;;;;5017777;28;20061;-70
2022/08/05 03:10:42;;;;;;;3.53;1.63;;;18.10;99.90;;;;;;5017895;28;20045;-69
2022/08/05 03:13:16;;;;;;;6.57;1.98;;;18.10;99.90;;;;;;5018233;28;20062;-69
2022/08/05 03:15:43;;;;;;;9.55;2.35;;;18.10;99.90;;;;;;5017830;28;20045;-69
2022/08/05 03:18:09;;;;;;;5.00;1.98;;;18.10;99.90;;;;;;5018138;28;20162;-70
2022/08/05 03:20:35;;;;;;;3.70;1.70;;;18.10;99.90;;;;;;5017574;28;20074;-69
2022/08/05 03:23:00;;;;;;;6.88;1.83;;;18.10;99.90;;;;;;5017651;28;20050;-69
2022/08/05 03:25:27;;;;;;;5.53;1.77;;;18.10;99.90;;;;;;5017855;28;20053;-69
2022/08/05 03:27:54;;;;;;;8.10;1.95;;;18.10;99.90;;;;;;5017922;28;20347;-70
2022/08/05 03:30:22;;;;;;;6.95;2.38;;;18.10;99.90;;;;;;4999045;28;20057;-69
2022/08/05 03:32:48;;;;;;;5.25;2.20;;;18.00;99.90;;;;;;5017483;28;20340;-69
2022/08/05 03:35:14;;;;;;;7.78;2.05;;;18.00;99.90;;;;;;5017674;28;20167;-69
2022/08/05 03:37:40;;;;;;;4.45;2.22;;;18.00;99.90;;;;;;4999705;28;20115;-69
2022/08/05 03:40:07;;;;;;;5.75;1.80;;;18.00;99.90;;;;;;5017221;28;20046;-68
2022/08/05 03:42:33;;;;;;;4.40;2.47;;;18.00;99.90;;;;;;5000301;28;20359;-69
2022/08/05 03:44:59;;;;;;;4.18;1.88;;;18.00;99.90;;;;;;5017098;28;20042;-69
2022/08/05 03:47:25;;;;;;;4.70;1.90;;;18.00;99.90;;;;;;5017446;28;20513;-68
2022/08/05 03:49:50;;;;;;;5.45;2.53;;;18.00;99.90;;;;;;5017193;28;20072;-69
2022/08/05 03:52:26;;;;;;;5.15;2.20;;;18.00;99.90;;;;;;5016997;28;20049;-69
2022/08/05 03:54:57;;;;;;;4.85;2.10;;;18.00;99.90;;;;;;5017060;28;20041;-69
2022/08/05 03:57:28;;;;;;;6.35;2.53;;;18.00;99.90;;;;;;5017269;28;20042;-69
2022/08/05 04:00:01;;;;;;;6.63;2.05;;;18.00;99.90;;;;;;5016799;28;20112;-68
2022/08/05 04:02:28;;;;;;;;;;;17.90;99.90;;;;;;5017219;28;20093;-70
2022/08/05 04:04:56;;;;;;;8.48;2.20;;;17.90;99.90;;;;;;5017133;28;20278;-69
2022/08/05 04:07:22;;;;;;;8.77;2.70;;;17.80;99.90;;;;;;5017394;28;20363;-70
2022/08/05 04:09:47;;;;;;;5.63;2.53;;;17.80;99.90;;;;;;5017060;28;20417;-68
2022/08/05 04:12:13;;;;;;;6.65;2.80;;;17.80;99.90;;;;;;5016970;28;20041;-69
2022/08/05 04:14:39;;;;;;;4.15;2.40;;;17.80;99.90;;;;;;5016586;28;20046;-68
2022/08/05 04:17:08;;;;;;;5.85;2.20;;;17.80;99.90;;;;;;5016563;28;20252;-69
2022/08/05 04:19:41;;;;;;;6.13;2.92;;;17.70;99.90;;;;;;5016976;28;20042;-69
2022/08/05 04:22:07;;;;;;;;;;;17.70;99.90;;;;;;5019516;28;20042;-69
2022/08/05 04:24:32;;;;;;;9.77;2.78;;;17.70;99.90;;;;;;4999876;28;19928;-68
2022/08/05 04:26:58;;;;;;;4.53;2.35;;;17.70;99.90;;;;;;5016059;28;20437;-68
2022/08/05 04:29:23;;;;;;;4.68;2.22;;;17.70;99.90;;;;;;5016232;28;20053;-69
2022/08/05 04:31:49;;;;;;;4.53;2.00;;;17.80;99.90;;;;;;5016381;28;20038;-69
2022/08/05 04:34:14;;;;;;;9.82;3.20;;;17.80;99.90;;;;;;5016288;28;20041;-68
2022/08/05 04:36:40;;;;;;;5.20;2.10;;;17.80;99.90;;;;;;5016579;28;20038;-70
2022/08/05 04:39:05;;;;;;;5.70;3.00;;;17.80;99.90;;;;;;5016088;28;20451;-69
2022/08/05 04:41:31;;;;;;;5.95;2.45;;;17.80;99.90;;;;;;5016202;28;20410;-68
2022/08/05 04:43:57;;;;;;;6.63;2.40;;;17.90;99.90;;;;;;5015876;28;20045;-69
2022/08/05 04:46:22;;;;;;;7.13;2.97;;;17.90;99.90;;;;;;5016273;28;20403;-69
2022/08/05 04:48:48;;;;;;;6.68;2.65;;;17.90;99.90;;;;;;5016065;28;20046;-69
2022/08/05 04:51:13;;;;;;;9.32;2.92;;;17.90;99.90;;;;;;5015639;28;20149;-68
2022/08/05 04:53:39;;;;;;;8.60;2.22;;;17.90;99.90;;;;;;5016246;28;20042;-69
2022/08/05 04:56:06;;;;;;;7.10;2.35;;;17.90;99.90;;;;;;5016097;28;20433;-68
2022/08/05 04:58:32;;;;;;;5.50;2.40;;;17.90;99.90;;;;;;4998311;28;20061;-69
2022/08/05 05:00:58;;;;;;;8.05;2.97;;;18.00;99.90;;;;;;5015607;28;20137;-69
2022/08/05 05:03:24;;;;;;;4.10;2.30;;;17.90;99.90;;;;;;5015227;28;20092;-70
2022/08/05 05:05:49;;;;;;;5.47;2.80;;;17.90;99.90;;;;;;5015264;28;20060;-68
2022/08/05 05:08:15;;;;;;;8.05;2.63;;;18.00;99.90;;;;;;5015996;28;20049;-69
2022/08/05 05:10:43;;;;;;;6.82;2.70;;;18.00;99.90;;;;;;5015595;28;20382;-69
2022/08/05 05:13:14;;;;;;;8.35;2.90;;;18.00;99.90;;;;;;5014992;28;20061;-69
2022/08/05 05:15:41;;;;;;;5.65;2.90;;;18.00;99.90;;;;;;4998259;28;20038;-69
2022/08/05 05:18:07;;;;;;;7.68;3.28;;;18.10;99.90;;;;;;5016044;28;20045;-69
2022/08/05 05:20:34;;;;;;;8.30;2.97;;;18.20;99.90;;;;;;5015729;28;20060;-69
2022/08/05 05:23:03;;;;;;;7.22;3.13;;;18.20;99.90;;;;;;5015611;28;20052;-69
2022/08/05 05:25:29;;;;;;;12.55;2.80;;;18.30;99.90;;;;;;5015618;28;20054;-69
2022/08/05 05:27:55;;;;;;;7.35;2.90;;;18.30;99.90;;;;;;5015714;28;20068;-69
2022/08/05 05:30:21;;;;;;;6.97;2.65;;;18.20;99.90;;;;;;5015096;28;20454;-68
2022/08/05 05:32:47;;;;;;;6.68;3.08;;;18.30;99.90;;;;;;5015723;28;20045;-67
2022/08/05 05:35:13;;;;;;;9.13;2.53;;;18.20;99.90;;;;;;5015252;28;20063;-69
2022/08/05 05:37:56;;;;;;;5.18;2.67;;;18.30;99.90;;;;;;5012686;28;20045;-70
2022/08/05 05:40:23;;;;;;;5.32;2.38;;;18.30;99.90;;;;;;5015057;28;20050;-70
2022/08/05 05:42:50;;;;;;;4.80;2.45;;;18.30;99.90;;;;;;5014713;28;20046;-70
2022/08/05 05:45:16;;;;;;;4.80;2.30;;;18.40;99.90;;;;;;5014624;28;20045;-70
2022/08/05 05:47:42;;;;;;;8.10;2.75;;;18.50;99.90;;;;;;5015128;28;20162;-68
2022/08/05 05:50:10;;;;;;;5.53;2.80;;;18.40;99.90;;;;;;5015183;28;20362;-68
2022/08/05 05:52:36;;;;;;;7.38;2.97;;;18.50;99.90;;;;;;5015179;28;20116;-68
2022/08/05 05:55:04;;;;;;;3.83;2.50;;;18.60;99.90;;;;;;5014803;28;20450;-68
2022/08/05 05:57:30;;;;;;;4.18;1.95;;;18.70;99.90;;;;;;5014913;28;20973;-68
2022/08/05 05:59:56;;;;;;;5.07;2.63;;;18.70;99.90;;;;;;5019644;28;20037;-69
2022/08/05 06:02:21;;;;;;;7.68;2.22;;;18.80;99.90;;;;;;5032614;28;20057;-69
2022/08/05 06:04:47;;;;;;;4.72;2.53;;;18.90;99.90;;;;;;5034743;28;20142;-69
2022/08/05 06:07:13;;;;;;;8.45;2.80;;;19.10;99.90;;;;;;5034708;28;20037;-69
2022/08/05 06:09:39;;;;;;;3.97;2.22;;;19.30;99.90;;;;;;5034433;28;20104;-69
2022/08/05 06:12:05;;;;;;;4.68;2.10;;;19.40;99.90;;;;;;5016838;28;20050;-68
2022/08/05 06:14:31;;;;;;;7.03;2.33;;;19.70;99.90;;;;;;5022688;28;20038;-69
2022/08/05 06:16:57;;;;;;;5.90;2.22;;;20.00;99.90;;;;;;5014804;28;20041;-69
2022/08/05 06:19:23;;;;;;;3.25;1.98;;;20.50;99.90;;;;;;5015007;28;20054;-69
2022/08/05 06:21:49;;;;;;;3.88;2.20;;;21.20;99.90;;;;;;5014311;28;20390;-68
2022/08/05 06:24:14;;;;;;;5.18;1.90;;;21.50;99.90;;;;;;5014789;28;20366;-70
2022/08/05 06:26:40;;;;;;;4.25;1.77;;;22.60;99.90;;;;;;5016445;28;20135;-68
2022/08/05 06:29:05;;;;;;;4.45;1.75;;;24.00;99.90;;;;;;5017829;28;20056;-68
2022/08/05 06:31:31;;;;;;;6.20;1.80;;;24.90;99.90;;;;;;5018443;28;20037;-69
2022/08/05 06:33:56;;;;;;;3.40;1.42;;;25.30;99.90;;;;;;5018453;28;20477;-69
2022/08/05 06:36:22;;;;;;;3.28;1.35;;;25.30;99.90;;;;;;5018424;28;20042;-69
2022/08/05 06:38:52;;;;;;;3.15;1.30;;;25.20;99.90;;;;;;5017823;28;20115;-69
2022/08/05 06:41:18;;;;;;;6.80;2.55;;;25.60;99.90;;;;;;5018362;28;20060;-70
2022/08/05 06:43:43;;;;;;;3.22;1.30;;;25.60;99.90;;;;;;5017767;28;20045;-70
2022/08/05 06:46:09;;;;;;;5.60;1.20;;;25.60;99.90;;;;;;5017628;28;20069;-69
2022/08/05 06:48:35;;;;;;;4.00;1.75;;;26.10;99.90;;;;;;5018506;28;20038;-68
2022/08/05 06:51:02;;;;;;;6.07;1.63;;;26.30;99.90;;;;;;5017703;28;20056;-68
2022/08/05 06:53:28;;;;;;;3.90;1.38;;;26.20;99.80;;;;;;5017933;28;20056;-69
2022/08/05 06:55:54;;;;;;;1.35;0.80;;;26.10;99.40;;;;;;5017046;28;20034;-68
2022/08/05 06:58:19;;;;;;;2.78;1.08;;;26.50;99.90;;;;;;5017979;28;20042;-69
2022/08/05 07:00:45;;;;;;;3.40;1.30;;;27.40;99.40;;;;;;5017551;28;20038;-70
2022/08/05 07:03:10;;;;;;;3.28;1.02;;;28.10;98.30;;;;;;5017479;28;20054;-70
2022/08/05 07:05:36;;;;;;;4.60;1.02;;;28.60;97.70;;;;;;5017840;28;20045;-70
2022/08/05 07:08:02;;;;;;;1.42;0.80;;;28.20;96.50;;;;;;5017160;28;20093;-70
2022/08/05 07:10:27;;;;;;;3.58;1.10;;;27.60;96.60;;;;;;5017026;28;20346;-70
2022/08/05 07:18:23;;;;;;;3.65;0.80;;;26.80;96.10;;;;;;5049918;22;20123;-70
2022/08/05 07:20:48;;;;;;;2.25;0.60;;;26.00;96.70;;;;;;5017514;28;20046;-70
2022/08/05 07:23:14;;;;;;;3.30;0.68;;;25.50;97.30;;;;;;5017462;28;20073;-69
2022/08/05 07:25:39;;;;;;;3.63;0.80;;;25.20;97.90;;;;;;5016796;28;20030;-70
2022/08/05 07:28:05;;;;;;;3.08;1.20;;;24.70;98.00;;;;;;5017357;28;20068;-69
2022/08/05 07:30:32;;;;;;;2.53;0.75;;;24.50;98.50;;;;;;5016866;28;20147;-71
2022/08/05 07:32:58;;;;;;;2.38;0.70;;;24.40;98.70;;;;;;5017373;28;20481;-71
2022/08/05 07:35:24;;;;;;;1.45;0.70;;;24.60;99.00;;;;;;5016762;28;20077;-69
2022/08/05 07:37:49;;;;;;;3.53;0.80;;;24.70;98.60;;;;;;5016555;28;20052;-69
2022/08/05 07:40:15;;;;;;;1.60;0.50;;;24.70;98.40;;;;;;5016450;28;20052;-69
2022/08/05 07:42:40;;;;;;;1.30;0.75;;;24.40;98.40;;;;;;5017222;28;20052;-69
2022/08/05 07:45:07;;;;;;;1.65;0.50;;;24.10;98.40;;;;;;5016922;28;20050;-69
2022/08/05 07:47:32;;;;;;;2.60;0.60;;;23.80;98.30;;;;;;5016826;28;20037;-69
2022/08/05 07:49:58;;;;;;;2.03;0.88;;;23.60;98.60;;;;;;5016478;28;20092;-68
2022/08/05 07:52:23;;;;;;;4.72;1.02;;;23.30;98.70;;;;;;5016838;28;20120;-68
2022/08/05 07:54:49;;;;;;;2.05;0.77;;;23.00;99.20;;;;;;5016274;28;20053;-68
2022/08/05 07:57:14;;;;;;;2.15;0.80;;;23.00;99.50;;;;;;5016618;28;20042;-67
2022/08/05 07:59:40;;;;;;;2.95;0.80;;;23.00;99.60;;;;;;5016266;28;20058;-67
2022/08/05 08:02:06;;;;;;;2.05;0.70;;;23.00;99.60;;;;;;5016030;28;20046;-70
2022/08/05 08:04:32;;;;;;;1.65;0.73;;;22.80;99.80;;;;;;5016323;28;20465;-67
2022/08/05 08:06:59;;;;;;;1.80;0.80;;;22.80;99.90;;;;;;5016514;28;20034;-67
2022/08/05 08:09:25;;;;;;;1.95;0.93;;;22.90;99.90;;;;;;5016375;28;20053;-67
2022/08/05 08:11:51;;;;;;;1.83;0.90;;;22.70;99.90;;;;;;5016899;28;20073;-67
2022/08/05 08:14:16;;;;;;;2.17;0.60;;;22.60;99.90;;;;;;5015532;28;20041;-67
2022/08/05 08:16:42;;;;;;;2.30;0.70;;;22.90;99.90;;;;;;5016169;28;20392;-66
2022/08/05 08:19:07;;;;;;;1.85;0.88;;;23.80;99.90;;;;;;5015647;28;20061;-67
2022/08/05 08:21:33;;;;;;;3.20;0.82;;;25.00;99.60;;;;;;5016114;28;20049;-67
2022/08/05 08:23:59;;;;;;;0.77;0.55;;;26.40;97.20;;;;;;5016519;28;20065;-67
2022/08/05 08:26:25;;;;;;;2.30;0.80;;;26.60;96.40;;;;;;5016127;28;20107;-66
2022/08/05 08:28:51;;;;;;;2.33;0.60;;;27.30;96.80;;;;;;5016225;28;20085;-67
2022/08/05 08:31:17;;;;;;;3.42;0.60;;;28.00;95.60;;;;;;5015634;28;20041;-67
2022/08/05 08:33:44;;;;;;;1.35;0.70;;;27.20;94.10;;;;;;5016186;28;20145;-69
2022/08/05 08:36:09;;;;;;;0.88;0.40;;;26.40;94.20;;;;;;5016106;28;20133;-67
2022/08/05 08:38:35;;;;;;;1.85;0.60;;;26.00;95.20;;;;;;5015533;28;20129;-68
2022/08/05 08:41:05;;;;;;;3.03;0.52;;;25.60;95.30;;;;;;5015552;28;20428;-69
2022/08/05 08:43:32;;;;;;;2.63;0.70;;;25.80;96.00;;;;;;5016207;28;20061;-68
2022/08/05 08:46:02;;;;;;;0.68;0.40;;;26.90;95.90;;;;;;5015372;28;20038;-68
2022/08/05 08:48:29;;;;;;;1.33;0.50;;;27.60;94.90;;;;;;5015042;28;20121;-68
2022/08/05 08:50:55;;;;;;;1.65;0.55;;;27.70;94.00;;;;;;5015427;28;20128;-68
2022/08/05 08:53:23;;;;;;;3.45;0.60;;;27.60;94.10;;;;;;5015780;28;20125;-68
2022/08/05 08:55:49;;;;;;;0.73;0.57;;;27.40;94.20;;;;;;5016055;28;20060;-68
2022/08/05 08:58:16;;;;;;;1.08;0.40;;;27.00;93.60;;;;;;5015392;28;20042;-68
2022/08/05 09:00:42;;;;;;;1.40;0.40;;;26.70;92.90;;;;;;5015128;28;20053;-68
2022/08/05 09:03:10;;;;;;;0.50;0.40;;;26.30;93.20;;;;;;5015436;28;20073;-67
2022/08/05 09:05:35;;;;;;;1.55;0.65;;;25.60;93.70;;;;;;5015662;28;20042;-68
2022/08/05 09:08:01;;;;;;;5.35;0.75;;;25.00;94.70;;;;;;5015455;28;20045;-67
2022/08/05 09:10:27;;;;;;;3.90;0.85;;;24.30;95.50;;;;;;5015300;28;20460;-68
2022/08/05 09:12:53;;;;;;;1.70;0.73;;;23.70;96.40;;;;;;5015165;28;20463;-67
2022/08/05 09:15:18;;;;;;;2.78;1.05;;;23.50;97.00;;;;;;5015020;28;20042;-68
2022/08/05 09:17:44;;;;;;;1.85;0.60;;;23.30;97.30;;;;;;5019434;28;20468;-68
2022/08/05 09:20:11;;;;;;;1.10;0.50;;;23.50;97.70;;;;;;5034989;28;20080;-68
2022/08/05 09:23:04;;;;;;;0.85;0.60;;;23.70;97.30;;;;;;5034744;28;20041;-68
2022/08/05 09:25:30;;;;;;;1.70;0.50;;;24.00;97.00;;;;;;5035246;28;20053;-67
2022/08/05 09:28:24;;;;;;;1.55;0.60;;;24.20;96.60;;;;;;5035092;28;20037;-68
2022/08/05 09:31:03;;;;;;;1.02;0.35;;;24.50;96.50;;;;;;5033981;28;20052;-68
2022/08/05 09:33:30;;;;;;;3.80;0.77;;;24.60;96.10;;;;;;5034735;28;20096;-68
2022/08/05 09:36:03;;;;;;;4.72;0.77;;;24.60;96.20;;;;;;5034872;28;20041;-67
2022/08/05 09:38:30;;;;;;;2.50;0.93;;;24.60;96.50;;;;;;5034502;28;20053;-66
2022/08/05 09:41:11;;;;;;;1.20;0.50;;;24.80;96.00;;;;;;5034527;28;20048;-66
2022/08/05 09:43:38;;;;;;;2.85;0.70;;;24.70;94.30;;;;;;5034641;28;20053;-68
2022/08/05 09:46:05;;;;;;;1.17;0.63;;;24.60;95.10;;;;;;5034661;28;20057;-68
2022/08/05 09:48:32;;;;;;;2.97;1.00;;;25.10;94.00;;;;;;5034327;28;20109;-68
2022/08/05 09:51:11;;;;;;;1.33;0.60;;;25.50;93.20;;;;;;5034366;28;20046;-68
2022/08/05 09:53:52;;;;;;;2.63;0.40;;;25.30;93.20;;;;;;5033094;28;20120;-68
2022/08/05 09:56:28;;;;;;;2.28;0.60;;;24.60;93.10;;;;;;5033978;28;20483;-68
2022/08/05 09:59:03;;;;;;;1.60;0.75;;;24.40;94.60;;;;;;5033902;28;20037;-68
2022/08/05 10:01:33;;;;;;;2.38;0.90;;;24.30;93.80;;;;;;5040826;28;20077;-68
2022/08/05 10:04:11;;;;;;;1.17;0.60;;;24.10;93.60;;;;;;5039954;28;20091;-68
2022/08/05 10:06:39;;;;;;;3.40;1.00;;;24.20;94.10;;;;;;5059669;28;20464;-68
2022/08/05 10:09:16;;;;;;;1.65;0.47;;;24.00;92.60;;;;;;5060831;28;20045;-68
2022/08/05 10:11:43;;;;;;;4.25;0.90;;;23.90;92.80;;;;;;5043295;28;20049;-68
2022/08/05 10:14:24;;;;;;;1.35;0.77;;;23.90;93.30;;;;;;5040906;28;20051;-68
2022/08/05 10:16:51;;;;;;;1.73;0.50;;;23.90;93.30;;;;;;5040541;28;20104;-68
2022/08/05 10:19:17;;;;;;;2.65;0.63;;;23.80;93.60;;;;;;5041088;28;20057;-70
2022/08/05 10:21:42;;;;;;;1.48;0.40;;;23.80;93.10;;;;;;5033046;28;20064;-70
2022/08/05 10:24:11;;;;;;;4.40;0.98;;;23.70;92.90;;;;;;5040442;28;20041;-70
2022/08/05 10:26:43;;;;;;;3.03;0.40;;;23.70;93.20;;;;;;5040786;28;20445;-70
2022/08/05 10:29:09;;;;;;;2.10;0.40;;;23.60;92.20;;;;;;5041067;28;20104;-69
2022/08/05 10:31:36;;;;;;;0.68;0.30;;;23.80;91.80;;;;;;5040799;28;20049;-70
2022/08/05 10:34:02;;;;;;;1.02;0.50;;;23.80;90.50;;;;;;5040381;28;20373;-68
2022/08/05 10:36:28;;;;;;;1.17;0.40;;;24.00;91.70;;;;;;5040559;28;20048;-69
2022/08/05 10:39:11;;;;;;;0.80;0.45;;;24.10;92.00;;;;;;5040117;28;20428;-68
2022/08/05 10:41:46;;;;;;;2.67;0.40;;;24.20;91.80;;;;;;5040815;28;20377;-69
2022/08/05 10:44:15;;;;;;;0.85;0.40;;;24.20;91.00;;;;;;5040730;28;20054;-68
2022/08/05 10:46:44;;;;;;;0.45;0.30;;;24.40;91.10;;;;;;5041072;28;20131;-68
2022/08/05 10:49:09;;;;;;;0.30;0.30;;;24.40;91.30;;;;;;5040316;28;20052;-67
2022/08/05 10:51:45;;;;;;;3.95;0.98;;;24.50;90.50;;;;;;5040418;28;20057;-68
2022/08/05 10:54:12;;;;;;;0.60;0.40;;;24.40;89.10;;;;;;5040489;28;20428;-67
2022/08/05 10:56:46;;;;;;;0.35;0.30;;;24.60;89.70;;;;;;5040441;28;20045;-68
2022/08/05 10:59:24;;;;;;;1.40;0.30;;;24.70;89.40;;;;;;5040518;28;20045;-69
2022/08/05 11:02:09;;;;;;;0.63;0.35;;;24.60;86.40;;;;;;5040269;28;20125;-68
2022/08/05 11:04:45;;;;;;;0.38;0.30;;;24.70;85.90;;;;;;5040338;28;20038;-68
2022/08/05 11:07:15;;;;;;;1.42;0.30;;;24.60;82.30;;;;;;5040290;28;20096;-68
2022/08/05 11:09:46;;;;;;;0.20;0.20;;;24.70;84.80;;;;;;5039868;28;20472;-68
2022/08/05 11:12:35;;;;;;;0.17;0.17;;;24.70;80.10;;;;;;5037757;28;20053;-67
2022/08/05 11:15:27;;;;;;;0.43;0.30;;;24.50;80.70;;;;;;5037058;28;20064;-68
2022/08/05 11:18:04;;;;;;;0.30;0.20;;;24.60;82.10;;;;;;5037142;28;20062;-68
2022/08/05 11:20:33;;;;;;;0.40;0.30;;;24.90;84.80;;;;;;5037005;28;20436;-68
2022/08/05 11:22:59;;;;;;;0.43;0.30;;;24.90;81.90;;;;;;5036738;28;20477;-69
2022/08/05 11:25:31;;;;;;;0.43;0.35;;;24.90;83.30;;;;;;5036779;28;20063;-69
2022/08/05 11:28:10;;;;;;;0.40;0.30;;;24.80;83.20;;;;;;5037279;28;20133;-69
2022/08/05 11:30:54;;;;;;;1.20;0.50;;;24.70;80.80;;;;;;5037375;28;20063;-68
2022/08/05 11:33:34;;;;;;;0.55;0.47;;;24.60;82.10;;;;;;5019849;28;20049;-69
2022/08/05 11:36:01;;;;;;;1.80;0.57;;;24.50;83.20;;;;;;5036493;28;20041;-68
2022/08/05 11:38:42;;;;;;;5.43;0.45;;;24.70;84.30;;;;;;5036506;28;20056;-68
2022/08/05 11:41:15;;;;;;;3.10;0.30;;;24.50;84.10;;;;;;5036967;28;20041;-69
2022/08/05 11:43:59;;;;;;;0.98;0.50;;;24.60;84.90;;;;;;5036876;28;20076;-69
2022/08/05 11:46:35;;;;;;;1.13;0.30;;;24.80;84.10;;;;;;5036404;28;20350;-68
2022/08/05 11:49:03;;;;;;;0.57;0.20;;;24.90;85.50;;;;;;5036530;28;20389;-68
2022/08/05 11:51:29;;;;;;;1.38;0.40;;;24.80;84.60;;;;;;5036740;28;20041;-69
2022/08/05 11:53:55;;;;;;;0.32;0.30;;;24.90;85.80;;;;;;5036338;28;20147;-69
2022/08/05 11:56:21;;;;;;;0.22;0.20;;;24.70;86.20;;;;;;5036545;28;20053;-68
2022/08/05 11:58:48;;;;;;;2.55;0.80;;;24.70;86.60;;;;;;5036621;28;20128;-68
2022/08/05 12:01:19;;;;;;;2.53;0.40;;;24.50;87.90;;;;;;5035596;28;20081;-70
2022/08/05 12:03:54;;;;;;;1.30;0.38;;;24.20;89.20;;;;;;5017067;28;20042;-70
2022/08/05 12:06:29;;;;;;;1.52;0.40;;;23.70;88.70;;;;;;5016518;28;20050;-68
2022/08/05 12:08:57;;;;;;;2.63;0.50;;;23.60;88.50;;;;;;5016073;28;20056;-67
2022/08/05 12:11:28;;;;;;;1.85;0.60;;;23.70;89.30;;;;;;5016698;28;20343;-68
2022/08/05 12:13:58;;;;;;;1.35;0.40;;;23.70;90.00;;;;;;5016451;28;20116;-68
2022/08/05 12:16:31;;;;;;;0.73;0.38;;;23.20;90.20;;;;;;5016538;28;20394;-68
2022/08/05 12:18:57;;;;;;;2.35;0.43;;;23.20;88.80;;;;;;5016170;28;20061;-68
2022/08/05 12:21:46;;;;;;;2.05;0.40;;;23.40;90.00;;;;;;5016260;28;20056;-68
2022/08/05 12:24:19;;;;;;;0.93;0.30;;;23.50;90.60;;;;;;5014284;28;20042;-69
2022/08/05 12:26:51;;;;;;;4.00;0.85;;;23.80;90.60;;;;;;5035058;28;20045;-69
2022/08/05 12:29:19;;;;;;;4.53;0.60;;;24.00;89.90;;;;;;5028954;28;20045;-69
2022/08/05 12:31:50;;;;;;;1.40;0.40;;;24.00;90.10;;;;;;5043939;28;20037;-69
2022/08/05 12:34:18;;;;;;;1.98;0.30;;;24.10;89.70;;;;;;5055825;28;20052;-68
2022/08/05 12:36:45;;;;;;;3.03;0.60;;;24.40;89.40;;;;;;5039438;28;20041;-68
2022/08/05 12:39:11;;;;;;;2.00;0.77;;;24.50;87.60;;;;;;5035401;28;20132;-68
2022/08/05 12:41:39;;;;;;;3.20;0.60;;;24.20;87.80;;;;;;5035494;28;20103;-68
2022/08/05 12:44:14;;;;;;;0.50;0.30;;;24.10;87.70;;;;;;5034730;28;20034;-68
2022/08/05 12:46:41;;;;;;;1.55;0.32;;;24.00;87.20;;;;;;5035680;28;20129;-67
2022/08/05 12:49:07;;;;;;;1.23;0.50;;;24.30;90.00;;;;;;5053218;28;20365;-67
2022/08/05 12:51:55;;;;;;;3.20;0.57;;;24.10;88.10;;;;;;5055452;28;20056;-68
2022/08/05 12:54:22;;;;;;;2.22;0.43;;;24.00;88.40;;;;;;5055255;28;20045;-68
2022/08/05 12:57:02;;;;;;;2.08;0.63;;;24.10;87.60;;;;;;5055184;28;20360;-68
2022/08/05 12:59:41;;;;;;;0.75;0.55;;;24.10;89.30;;;;;;5055134;28;20041;-68
2022/08/05 13:02:08;;;;;;;1.35;0.43;;;24.10;89.80;;;;;;5055595;28;20041;-68